sensor_id;sensor_type;location;lat;lon;timestamp;P1;durP1;ratioP1;P2;durP2;ratioP2
12177;SDS011;6152;48.728;9.256;2023-08-20T00:00:30;8.88;;;8.00;;
12177;SDS011;6152;48.728;9.256;2023-08-20T00:03:03;9.02;;;8.23;;
12177;SDS011;6152;48.728;9.256;2023-08-20T00:05:37;9.43;;;8.30;;
12177;SDS011;6152;48.728;9.256;2023-08-20T00:08:04;9.00;;;8.15;;
12177;SDS011;6152;48.728;9.256;2023-08-20T00:10:31;9.77;;;8.88;;
12177;SDS011;6152;48.728;9.256;2023-08-20T00:12:57;10.38;;;8.45;;
12177;SDS011;6152;48.728;9.256;2023-08-20T00:15:23;9.15;;;8.35;;
12177;SDS011;6152;48.728;9.256;2023-08-20T00:17:52;8.90;;;8.00;;
12177;SDS011;6152;48.728;9.256;2023-08-20T00:20:20;9.05;;;8.10;;
12177;SDS011;6152;48.728;9.256;2023-08-20T00:22:47;9.68;;;8.73;;
12177;SDS011;6152;48.728;9.256;2023-08-20T00:25:14;9.02;;;8.23;;
12177;SDS011;6152;48.728;9.256;2023-08-20T00:27:42;9.75;;;8.55;;
12177;SDS011;6152;48.728;9.256;2023-08-20T00:30:08;11.35;;;8.82;;
12177;SDS011;6152;48.728;9.256;2023-08-20T00:32:35;10.32;;;8.45;;
12177;SDS011;6152;48.728;9.256;2023-08-20T00:35:02;10.15;;;8.98;;
12177;SDS011;6152;48.728;9.256;2023-08-20T00:37:29;10.07;;;8.63;;
12177;SDS011;6152;48.728;9.256;2023-08-20T00:39:55;9.43;;;8.60;;
12177;SDS011;6152;48.728;9.256;2023-08-20T00:42:25;9.40;;;8.38;;
12177;SDS011;6152;48.728;9.256;2023-08-20T00:44:54;9.77;;;8.93;;
12177;SDS011;6152;48.728;9.256;2023-08-20T00:47:20;11.35;;;9.55;;
12177;SDS011;6152;48.728;9.256;2023-08-20T00:49:47;10.30;;;9.20;;
12177;SDS011;6152;48.728;9.256;2023-08-20T00:52:14;9.80;;;8.85;;
12177;SDS011;6152;48.728;9.256;2023-08-20T00:54:44;10.15;;;9.15;;
12177;SDS011;6152;48.728;9.256;2023-08-20T00:57:13;9.52;;;8.70;;
12177;SDS011;6152;48.728;9.256;2023-08-20T00:59:40;10.88;;;8.85;;
12177;SDS011;6152;48.728;9.256;2023-08-20T01:02:06;10.43;;;9.32;;
12177;SDS011;6152;48.728;9.256;2023-08-20T01:04:33;9.95;;;9.05;;
12177;SDS011;6152;48.728;9.256;2023-08-20T01:07:04;10.68;;;9.50;;
12177;SDS011;6152;48.728;9.256;2023-08-20T01:09:57;10.75;;;9.63;;
12177;SDS011;6152;48.728;9.256;2023-08-20T01:12:31;10.25;;;9.27;;
12177;SDS011;6152;48.728;9.256;2023-08-20T01:14:59;10.02;;;9.02;;
12177;SDS011;6152;48.728;9.256;2023-08-20T01:17:25;9.77;;;8.88;;
12177;SDS011;6152;48.728;9.256;2023-08-20T01:19:51;10.40;;;9.40;;
12177;SDS011;6152;48.728;9.256;2023-08-20T01:30:54;10.70;;;9.70;;
12177;SDS011;6152;48.728;9.256;2023-08-20T01:33:22;11.10;;;9.30;;
12177;SDS011;6152;48.728;9.256;2023-08-20T01:35:51;11.18;;;10.07;;
12177;SDS011;6152;48.728;9.256;2023-08-20T01:38:18;11.75;;;10.65;;
12177;SDS011;6152;48.728;9.256;2023-08-20T01:40:44;12.02;;;10.93;;
12177;SDS011;6152;48.728;9.256;2023-08-20T01:43:11;11.23;;;10.15;;
12177;SDS011;6152;48.728;9.256;2023-08-20T01:45:37;11.63;;;10.48;;
12177;SDS011;6152;48.728;9.256;2023-08-20T01:48:03;11.98;;;10.65;;
12177;SDS011;6152;48.728;9.256;2023-08-20T01:50:30;11.80;;;10.43;;
12177;SDS011;6152;48.728;9.256;2023-08-20T01:52:56;12.73;;;11.30;;
12177;SDS011;6152;48.728;9.256;2023-08-20T01:55:22;14.43;;;11.35;;
12177;SDS011;6152;48.728;9.256;2023-08-20T01:57:48;12.50;;;11.20;;
12177;SDS011;6152;48.728;9.256;2023-08-20T02:00:14;12.48;;;10.35;;
12177;SDS011;6152;48.728;9.256;2023-08-20T02:02:41;12.43;;;11.18;;
12177;SDS011;6152;48.728;9.256;2023-08-20T02:05:07;11.13;;;10.13;;
12177;SDS011;6152;48.728;9.256;2023-08-20T02:07:35;13.32;;;10.50;;
12177;SDS011;6152;48.728;9.256;2023-08-20T02:10:01;16.73;;;11.50;;
12177;SDS011;6152;48.728;9.256;2023-08-20T02:12:28;12.70;;;11.50;;
12177;SDS011;6152;48.728;9.256;2023-08-20T02:14:54;11.43;;;10.30;;
12177;SDS011;6152;48.728;9.256;2023-08-20T02:17:20;13.75;;;11.05;;
12177;SDS011;6152;48.728;9.256;2023-08-20T02:19:46;14.43;;;11.35;;
12177;SDS011;6152;48.728;9.256;2023-08-20T02:22:12;14.20;;;10.90;;
12177;SDS011;6152;48.728;9.256;2023-08-20T02:24:39;13.18;;;11.07;;
12177;SDS011;6152;48.728;9.256;2023-08-20T02:27:05;12.30;;;10.85;;
12177;SDS011;6152;48.728;9.256;2023-08-20T02:29:31;11.32;;;10.23;;
12177;SDS011;6152;48.728;9.256;2023-08-20T02:31:57;12.50;;;10.60;;
12177;SDS011;6152;48.728;9.256;2023-08-20T02:34:23;12.18;;;10.20;;
12177;SDS011;6152;48.728;9.256;2023-08-20T02:36:50;11.98;;;10.77;;
12177;SDS011;6152;48.728;9.256;2023-08-20T02:39:16;11.77;;;10.57;;
12177;SDS011;6152;48.728;9.256;2023-08-20T02:41:42;12.35;;;10.77;;
12177;SDS011;6152;48.728;9.256;2023-08-20T02:44:08;11.85;;;10.65;;
12177;SDS011;6152;48.728;9.256;2023-08-20T02:46:34;11.38;;;10.38;;
12177;SDS011;6152;48.728;9.256;2023-08-20T02:49:03;15.65;;;11.25;;
12177;SDS011;6152;48.728;9.256;2023-08-20T02:51:29;11.73;;;10.63;;
12177;SDS011;6152;48.728;9.256;2023-08-20T02:53:55;15.38;;;11.60;;
12177;SDS011;6152;48.728;9.256;2023-08-20T02:56:21;12.07;;;10.93;;
12177;SDS011;6152;48.728;9.256;2023-08-20T02:58:47;12.35;;;11.05;;
12177;SDS011;6152;48.728;9.256;2023-08-20T03:01:20;12.25;;;10.93;;
12177;SDS011;6152;48.728;9.256;2023-08-20T03:03:47;14.60;;;12.98;;
12177;SDS011;6152;48.728;9.256;2023-08-20T03:06:13;12.52;;;11.32;;
12177;SDS011;6152;48.728;9.256;2023-08-20T03:08:39;13.25;;;11.00;;
12177;SDS011;6152;48.728;9.256;2023-08-20T03:11:05;12.07;;;10.95;;
12177;SDS011;6152;48.728;9.256;2023-08-20T03:13:31;15.10;;;12.15;;
12177;SDS011;6152;48.728;9.256;2023-08-20T03:15:57;13.27;;;11.95;;
12177;SDS011;6152;48.728;9.256;2023-08-20T03:18:24;13.25;;;11.02;;
12177;SDS011;6152;48.728;9.256;2023-08-20T03:20:50;12.73;;;11.48;;
12177;SDS011;6152;48.728;9.256;2023-08-20T03:23:16;14.00;;;11.73;;
12177;SDS011;6152;48.728;9.256;2023-08-20T03:25:42;13.77;;;12.48;;
12177;SDS011;6152;48.728;9.256;2023-08-20T03:28:08;14.45;;;12.05;;
12177;SDS011;6152;48.728;9.256;2023-08-20T03:30:34;12.85;;;11.55;;
12177;SDS011;6152;48.728;9.256;2023-08-20T03:33:02;13.10;;;11.70;;
12177;SDS011;6152;48.728;9.256;2023-08-20T03:35:28;14.07;;;12.68;;
12177;SDS011;6152;48.728;9.256;2023-08-20T03:37:54;14.73;;;13.20;;
12177;SDS011;6152;48.728;9.256;2023-08-20T03:40:20;13.20;;;11.80;;
12177;SDS011;6152;48.728;9.256;2023-08-20T03:42:46;12.70;;;11.50;;
12177;SDS011;6152;48.728;9.256;2023-08-20T03:45:13;16.67;;;12.10;;
12177;SDS011;6152;48.728;9.256;2023-08-20T03:47:39;14.52;;;12.25;;
12177;SDS011;6152;48.728;9.256;2023-08-20T03:50:07;16.23;;;12.88;;
12177;SDS011;6152;48.728;9.256;2023-08-20T03:52:33;14.45;;;12.90;;
12177;SDS011;6152;48.728;9.256;2023-08-20T03:54:59;13.60;;;12.30;;
12177;SDS011;6152;48.728;9.256;2023-08-20T03:57:25;14.02;;;12.32;;
12177;SDS011;6152;48.728;9.256;2023-08-20T03:59:52;14.05;;;11.93;;
12177;SDS011;6152;48.728;9.256;2023-08-20T04:02:18;14.05;;;12.70;;
12177;SDS011;6152;48.728;9.256;2023-08-20T04:04:44;14.18;;;12.60;;
12177;SDS011;6152;48.728;9.256;2023-08-20T04:07:10;14.52;;;12.82;;
12177;SDS011;6152;48.728;9.256;2023-08-20T04:09:36;13.98;;;12.57;;
12177;SDS011;6152;48.728;9.256;2023-08-20T04:12:03;15.57;;;12.35;;
12177;SDS011;6152;48.728;9.256;2023-08-20T04:14:30;15.50;;;12.88;;
12177;SDS011;6152;48.728;9.256;2023-08-20T04:16:56;17.08;;;12.52;;
12177;SDS011;6152;48.728;9.256;2023-08-20T04:19:22;13.75;;;12.40;;
12177;SDS011;6152;48.728;9.256;2023-08-20T04:21:48;15.65;;;12.77;;
12177;SDS011;6152;48.728;9.256;2023-08-20T04:24:15;15.02;;;13.00;;
12177;SDS011;6152;48.728;9.256;2023-08-20T04:26:41;14.57;;;12.35;;
12177;SDS011;6152;48.728;9.256;2023-08-20T04:29:08;13.07;;;11.77;;
12177;SDS011;6152;48.728;9.256;2023-08-20T04:31:34;13.40;;;11.95;;
12177;SDS011;6152;48.728;9.256;2023-08-20T04:34:01;13.50;;;12.18;;
12177;SDS011;6152;48.728;9.256;2023-08-20T04:36:27;13.38;;;11.93;;
12177;SDS011;6152;48.728;9.256;2023-08-20T04:38:53;15.32;;;11.77;;
12177;SDS011;6152;48.728;9.256;2023-08-20T04:41:19;13.77;;;11.60;;
12177;SDS011;6152;48.728;9.256;2023-08-20T04:43:45;12.52;;;11.02;;
12177;SDS011;6152;48.728;9.256;2023-08-20T04:46:11;14.00;;;12.60;;
12177;SDS011;6152;48.728;9.256;2023-08-20T04:48:37;15.05;;;12.68;;
12177;SDS011;6152;48.728;9.256;2023-08-20T04:51:04;14.05;;;12.60;;
12177;SDS011;6152;48.728;9.256;2023-08-20T04:53:31;12.95;;;11.73;;
12177;SDS011;6152;48.728;9.256;2023-08-20T04:55:58;14.05;;;12.48;;
12177;SDS011;6152;48.728;9.256;2023-08-20T04:58:24;13.13;;;11.82;;
12177;SDS011;6152;48.728;9.256;2023-08-20T05:00:51;13.32;;;12.02;;
12177;SDS011;6152;48.728;9.256;2023-08-20T05:03:17;13.32;;;11.95;;
12177;SDS011;6152;48.728;9.256;2023-08-20T05:05:47;14.82;;;12.82;;
12177;SDS011;6152;48.728;9.256;2023-08-20T05:08:14;15.25;;;12.85;;
12177;SDS011;6152;48.728;9.256;2023-08-20T05:10:40;15.77;;;12.95;;
12177;SDS011;6152;48.728;9.256;2023-08-20T05:13:06;14.40;;;12.90;;
12177;SDS011;6152;48.728;9.256;2023-08-20T05:15:33;15.85;;;12.82;;
12177;SDS011;6152;48.728;9.256;2023-08-20T05:17:59;16.13;;;12.63;;
12177;SDS011;6152;48.728;9.256;2023-08-20T05:20:25;15.68;;;12.13;;
12177;SDS011;6152;48.728;9.256;2023-08-20T05:22:51;13.38;;;12.07;;
12177;SDS011;6152;48.728;9.256;2023-08-20T05:25:17;16.98;;;12.73;;
12177;SDS011;6152;48.728;9.256;2023-08-20T05:27:43;14.93;;;13.52;;
12177;SDS011;6152;48.728;9.256;2023-08-20T05:30:09;15.50;;;13.90;;
12177;SDS011;6152;48.728;9.256;2023-08-20T05:32:36;14.43;;;13.02;;
12177;SDS011;6152;48.728;9.256;2023-08-20T05:35:02;14.52;;;12.48;;
12177;SDS011;6152;48.728;9.256;2023-08-20T05:37:29;13.82;;;12.30;;
12177;SDS011;6152;48.728;9.256;2023-08-20T05:39:55;14.40;;;12.38;;
12177;SDS011;6152;48.728;9.256;2023-08-20T05:42:21;13.43;;;11.98;;
12177;SDS011;6152;48.728;9.256;2023-08-20T05:44:47;13.95;;;12.52;;
12177;SDS011;6152;48.728;9.256;2023-08-20T05:47:13;13.85;;;11.57;;
12177;SDS011;6152;48.728;9.256;2023-08-20T05:49:39;16.70;;;12.43;;
12177;SDS011;6152;48.728;9.256;2023-08-20T05:52:05;13.77;;;12.38;;
12177;SDS011;6152;48.728;9.256;2023-08-20T05:54:31;14.68;;;13.18;;
12177;SDS011;6152;48.728;9.256;2023-08-20T05:56:58;14.18;;;12.68;;
12177;SDS011;6152;48.728;9.256;2023-08-20T05:59:24;13.98;;;12.40;;
12177;SDS011;6152;48.728;9.256;2023-08-20T06:01:50;15.93;;;13.60;;
12177;SDS011;6152;48.728;9.256;2023-08-20T06:04:17;14.73;;;13.20;;
12177;SDS011;6152;48.728;9.256;2023-08-20T06:06:44;13.43;;;12.07;;
12177;SDS011;6152;48.728;9.256;2023-08-20T06:09:10;16.40;;;13.35;;
12177;SDS011;6152;48.728;9.256;2023-08-20T06:11:36;14.32;;;12.93;;
12177;SDS011;6152;48.728;9.256;2023-08-20T06:14:02;14.45;;;12.95;;
12177;SDS011;6152;48.728;9.256;2023-08-20T06:16:29;15.27;;;13.77;;
12177;SDS011;6152;48.728;9.256;2023-08-20T06:18:55;14.82;;;12.52;;
12177;SDS011;6152;48.728;9.256;2023-08-20T06:21:22;14.45;;;13.05;;
12177;SDS011;6152;48.728;9.256;2023-08-20T06:23:48;13.73;;;12.20;;
12177;SDS011;6152;48.728;9.256;2023-08-20T06:26:14;13.75;;;12.35;;
12177;SDS011;6152;48.728;9.256;2023-08-20T06:28:40;13.48;;;12.07;;
12177;SDS011;6152;48.728;9.256;2023-08-20T06:31:07;13.65;;;12.35;;
12177;SDS011;6152;48.728;9.256;2023-08-20T06:33:33;15.70;;;13.30;;
12177;SDS011;6152;48.728;9.256;2023-08-20T06:35:59;13.52;;;12.23;;
12177;SDS011;6152;48.728;9.256;2023-08-20T06:38:25;15.95;;;11.82;;
12177;SDS011;6152;48.728;9.256;2023-08-20T06:40:51;13.27;;;11.88;;
12177;SDS011;6152;48.728;9.256;2023-08-20T06:43:18;15.20;;;13.07;;
12177;SDS011;6152;48.728;9.256;2023-08-20T06:45:44;13.25;;;11.93;;
12177;SDS011;6152;48.728;9.256;2023-08-20T06:48:10;14.57;;;13.00;;
12177;SDS011;6152;48.728;9.256;2023-08-20T06:50:36;12.77;;;11.48;;
12177;SDS011;6152;48.728;9.256;2023-08-20T06:53:02;15.52;;;11.30;;
12177;SDS011;6152;48.728;9.256;2023-08-20T06:55:30;13.05;;;11.75;;
12177;SDS011;6152;48.728;9.256;2023-08-20T06:57:56;12.07;;;10.77;;
12177;SDS011;6152;48.728;9.256;2023-08-20T07:00:22;13.88;;;11.25;;
12177;SDS011;6152;48.728;9.256;2023-08-20T07:02:48;14.60;;;12.40;;
12177;SDS011;6152;48.728;9.256;2023-08-20T07:05:14;14.07;;;12.60;;
12177;SDS011;6152;48.728;9.256;2023-08-20T07:07:40;12.98;;;11.70;;
12177;SDS011;6152;48.728;9.256;2023-08-20T07:10:07;13.57;;;12.18;;
12177;SDS011;6152;48.728;9.256;2023-08-20T07:12:33;13.48;;;12.07;;
12177;SDS011;6152;48.728;9.256;2023-08-20T07:14:59;15.80;;;11.02;;
12177;SDS011;6152;48.728;9.256;2023-08-20T07:17:25;10.60;;;9.13;;
12177;SDS011;6152;48.728;9.256;2023-08-20T07:19:51;10.02;;;8.77;;
12177;SDS011;6152;48.728;9.256;2023-08-20T07:22:17;11.25;;;10.15;;
12177;SDS011;6152;48.728;9.256;2023-08-20T07:24:43;9.90;;;8.98;;
12177;SDS011;6152;48.728;9.256;2023-08-20T07:27:09;10.70;;;8.55;;
12177;SDS011;6152;48.728;9.256;2023-08-20T07:29:37;12.13;;;10.20;;
12177;SDS011;6152;48.728;9.256;2023-08-20T07:32:03;11.43;;;10.25;;
12177;SDS011;6152;48.728;9.256;2023-08-20T07:34:30;11.65;;;10.07;;
12177;SDS011;6152;48.728;9.256;2023-08-20T07:36:58;12.35;;;9.13;;
12177;SDS011;6152;48.728;9.256;2023-08-20T07:39:24;10.38;;;9.35;;
12177;SDS011;6152;48.728;9.256;2023-08-20T07:41:50;10.15;;;9.18;;
12177;SDS011;6152;48.728;9.256;2023-08-20T07:44:17;9.93;;;8.95;;
12177;SDS011;6152;48.728;9.256;2023-08-20T07:46:43;10.82;;;9.75;;
12177;SDS011;6152;48.728;9.256;2023-08-20T07:49:09;10.85;;;9.77;;
12177;SDS011;6152;48.728;9.256;2023-08-20T07:51:35;10.02;;;8.93;;
12177;SDS011;6152;48.728;9.256;2023-08-20T07:54:01;12.93;;;9.55;;
12177;SDS011;6152;48.728;9.256;2023-08-20T07:56:28;9.60;;;8.60;;
12177;SDS011;6152;48.728;9.256;2023-08-20T07:58:54;10.07;;;8.93;;
12177;SDS011;6152;48.728;9.256;2023-08-20T08:01:20;9.20;;;8.32;;
12177;SDS011;6152;48.728;9.256;2023-08-20T08:03:47;11.15;;;8.95;;
12177;SDS011;6152;48.728;9.256;2023-08-20T08:06:13;9.30;;;8.50;;
12177;SDS011;6152;48.728;9.256;2023-08-20T08:08:42;9.70;;;8.80;;
12177;SDS011;6152;48.728;9.256;2023-08-20T08:11:11;10.57;;;8.50;;
12177;SDS011;6152;48.728;9.256;2023-08-20T08:13:37;9.27;;;8.38;;
12177;SDS011;6152;48.728;9.256;2023-08-20T08:16:03;10.65;;;8.35;;
12177;SDS011;6152;48.728;9.256;2023-08-20T08:18:30;10.70;;;9.20;;
12177;SDS011;6152;48.728;9.256;2023-08-20T08:20:56;9.52;;;8.68;;
12177;SDS011;6152;48.728;9.256;2023-08-20T08:23:22;9.77;;;8.93;;
12177;SDS011;6152;48.728;9.256;2023-08-20T08:25:48;9.95;;;8.95;;
12177;SDS011;6152;48.728;9.256;2023-08-20T08:28:14;10.50;;;9.50;;
12177;SDS011;6152;48.728;9.256;2023-08-20T08:30:40;10.20;;;8.40;;
12177;SDS011;6152;48.728;9.256;2023-08-20T08:33:06;11.80;;;8.90;;
12177;SDS011;6152;48.728;9.256;2023-08-20T08:35:33;9.27;;;8.25;;
12177;SDS011;6152;48.728;9.256;2023-08-20T08:37:59;9.27;;;8.30;;
12177;SDS011;6152;48.728;9.256;2023-08-20T08:40:27;9.65;;;8.70;;
12177;SDS011;6152;48.728;9.256;2023-08-20T08:42:54;9.85;;;8.75;;
12177;SDS011;6152;48.728;9.256;2023-08-20T08:45:21;9.73;;;8.68;;
12177;SDS011;6152;48.728;9.256;2023-08-20T08:47:48;10.23;;;8.43;;
12177;SDS011;6152;48.728;9.256;2023-08-20T08:50:15;9.00;;;7.70;;
12177;SDS011;6152;48.728;9.256;2023-08-20T08:52:42;8.65;;;7.68;;
12177;SDS011;6152;48.728;9.256;2023-08-20T08:55:12;9.48;;;7.30;;
12177;SDS011;6152;48.728;9.256;2023-08-20T08:57:38;8.18;;;7.30;;
12177;SDS011;6152;48.728;9.256;2023-08-20T09:00:04;8.18;;;7.47;;
12177;SDS011;6152;48.728;9.256;2023-08-20T09:02:31;7.90;;;6.95;;
12177;SDS011;6152;48.728;9.256;2023-08-20T09:04:57;8.18;;;7.25;;
12177;SDS011;6152;48.728;9.256;2023-08-20T09:07:24;7.57;;;6.82;;
12177;SDS011;6152;48.728;9.256;2023-08-20T09:09:50;8.07;;;7.28;;
12177;SDS011;6152;48.728;9.256;2023-08-20T09:12:22;7.80;;;7.03;;
12177;SDS011;6152;48.728;9.256;2023-08-20T09:14:49;8.15;;;7.40;;
12177;SDS011;6152;48.728;9.256;2023-08-20T09:17:16;7.85;;;6.63;;
12177;SDS011;6152;48.728;9.256;2023-08-20T09:19:44;6.82;;;6.22;;
12177;SDS011;6152;48.728;9.256;2023-08-20T09:22:11;7.65;;;6.95;;
12177;SDS011;6152;48.728;9.256;2023-08-20T09:24:39;8.10;;;6.90;;
12177;SDS011;6152;48.728;9.256;2023-08-20T09:27:09;6.78;;;6.28;;
12177;SDS011;6152;48.728;9.256;2023-08-20T09:29:46;7.43;;;6.82;;
12177;SDS011;6152;48.728;9.256;2023-08-20T09:32:14;6.97;;;6.47;;
12177;SDS011;6152;48.728;9.256;2023-08-20T09:34:50;6.32;;;5.72;;
12177;SDS011;6152;48.728;9.256;2023-08-20T09:37:21;6.40;;;5.90;;
12177;SDS011;6152;48.728;9.256;2023-08-20T09:39:49;7.43;;;6.78;;
12177;SDS011;6152;48.728;9.256;2023-08-20T09:42:15;7.45;;;6.80;;
12177;SDS011;6152;48.728;9.256;2023-08-20T09:44:42;6.60;;;6.10;;
12177;SDS011;6152;48.728;9.256;2023-08-20T09:47:13;6.63;;;5.97;;
12177;SDS011;6152;48.728;9.256;2023-08-20T09:49:42;6.93;;;6.32;;
12177;SDS011;6152;48.728;9.256;2023-08-20T09:52:16;6.45;;;5.95;;
12177;SDS011;6152;48.728;9.256;2023-08-20T09:55:08;6.80;;;6.30;;
12177;SDS011;6152;48.728;9.256;2023-08-20T09:57:46;7.30;;;6.32;;
12177;SDS011;6152;48.728;9.256;2023-08-20T10:00:13;6.63;;;5.97;;
12177;SDS011;6152;48.728;9.256;2023-08-20T10:02:42;8.68;;;6.82;;
12177;SDS011;6152;48.728;9.256;2023-08-20T10:05:10;7.90;;;6.53;;
12177;SDS011;6152;48.728;9.256;2023-08-20T10:07:36;7.32;;;6.72;;
12177;SDS011;6152;48.728;9.256;2023-08-20T10:10:04;6.63;;;6.10;;
12177;SDS011;6152;48.728;9.256;2023-08-20T10:12:38;6.70;;;5.60;;
12177;SDS011;6152;48.728;9.256;2023-08-20T10:15:06;6.43;;;5.93;;
12177;SDS011;6152;48.728;9.256;2023-08-20T10:17:33;6.25;;;5.75;;
12177;SDS011;6152;48.728;9.256;2023-08-20T10:20:01;6.18;;;5.78;;
12177;SDS011;6152;48.728;9.256;2023-08-20T10:22:35;6.55;;;5.95;;
12177;SDS011;6152;48.728;9.256;2023-08-20T10:25:26;6.30;;;5.88;;
12177;SDS011;6152;48.728;9.256;2023-08-20T10:27:52;6.38;;;5.80;;
12177;SDS011;6152;48.728;9.256;2023-08-20T10:30:19;6.75;;;6.35;;
12177;SDS011;6152;48.728;9.256;2023-08-20T10:32:52;7.28;;;6.60;;
12177;SDS011;6152;48.728;9.256;2023-08-20T10:35:25;6.45;;;5.85;;
12177;SDS011;6152;48.728;9.256;2023-08-20T10:38:15;7.30;;;6.70;;
12177;SDS011;6152;48.728;9.256;2023-08-20T10:40:49;7.00;;;6.32;;
12177;SDS011;6152;48.728;9.256;2023-08-20T10:43:32;6.85;;;6.20;;
12177;SDS011;6152;48.728;9.256;2023-08-20T10:46:03;6.38;;;5.90;;
12177;SDS011;6152;48.728;9.256;2023-08-20T10:48:39;6.72;;;6.28;;
12177;SDS011;6152;48.728;9.256;2023-08-20T10:51:07;7.00;;;6.40;;
12177;SDS011;6152;48.728;9.256;2023-08-20T10:53:38;6.88;;;6.25;;
12177;SDS011;6152;48.728;9.256;2023-08-20T10:56:10;6.78;;;6.25;;
12177;SDS011;6152;48.728;9.256;2023-08-20T10:58:41;7.18;;;6.07;;
12177;SDS011;6152;48.728;9.256;2023-08-20T11:01:19;6.38;;;5.78;;
12177;SDS011;6152;48.728;9.256;2023-08-20T11:03:49;6.18;;;5.72;;
12177;SDS011;6152;48.728;9.256;2023-08-20T11:06:16;7.07;;;6.38;;
12177;SDS011;6152;48.728;9.256;2023-08-20T11:08:44;6.43;;;5.80;;
12177;SDS011;6152;48.728;9.256;2023-08-20T11:11:11;6.10;;;5.60;;
12177;SDS011;6152;48.728;9.256;2023-08-20T11:13:37;6.68;;;6.18;;
12177;SDS011;6152;48.728;9.256;2023-08-20T11:16:04;6.28;;;5.88;;
12177;SDS011;6152;48.728;9.256;2023-08-20T11:18:32;7.25;;;6.70;;
12177;SDS011;6152;48.728;9.256;2023-08-20T11:20:59;6.15;;;5.68;;
12177;SDS011;6152;48.728;9.256;2023-08-20T11:23:26;5.97;;;5.63;;
12177;SDS011;6152;48.728;9.256;2023-08-20T11:25:53;6.25;;;5.90;;
12177;SDS011;6152;48.728;9.256;2023-08-20T11:28:19;6.88;;;6.38;;
12177;SDS011;6152;48.728;9.256;2023-08-20T11:30:46;6.15;;;5.50;;
12177;SDS011;6152;48.728;9.256;2023-08-20T11:33:12;6.32;;;5.82;;
12177;SDS011;6152;48.728;9.256;2023-08-20T11:35:38;6.38;;;5.88;;
12177;SDS011;6152;48.728;9.256;2023-08-20T11:38:06;5.90;;;5.50;;
12177;SDS011;6152;48.728;9.256;2023-08-20T11:40:32;6.55;;;5.80;;
12177;SDS011;6152;48.728;9.256;2023-08-20T11:42:58;6.68;;;5.93;;
12177;SDS011;6152;48.728;9.256;2023-08-20T11:45:25;5.85;;;5.35;;
12177;SDS011;6152;48.728;9.256;2023-08-20T11:47:55;6.72;;;6.22;;
12177;SDS011;6152;48.728;9.256;2023-08-20T11:50:25;6.47;;;5.97;;
12177;SDS011;6152;48.728;9.256;2023-08-20T11:52:52;5.90;;;5.50;;
12177;SDS011;6152;48.728;9.256;2023-08-20T11:55:24;6.40;;;5.93;;
12177;SDS011;6152;48.728;9.256;2023-08-20T11:57:51;5.63;;;5.32;;
12177;SDS011;6152;48.728;9.256;2023-08-20T12:00:27;6.10;;;5.60;;
12177;SDS011;6152;48.728;9.256;2023-08-20T12:02:55;6.60;;;5.95;;
12177;SDS011;6152;48.728;9.256;2023-08-20T12:05:26;7.53;;;5.80;;
12177;SDS011;6152;48.728;9.256;2023-08-20T12:07:56;5.88;;;5.47;;
12177;SDS011;6152;48.728;9.256;2023-08-20T12:10:23;6.60;;;6.03;;
12177;SDS011;6152;48.728;9.256;2023-08-20T12:12:51;7.20;;;6.60;;
12177;SDS011;6152;48.728;9.256;2023-08-20T12:15:18;7.57;;;6.13;;
12177;SDS011;6152;48.728;9.256;2023-08-20T12:20:23;6.20;;;5.78;;
12177;SDS011;6152;48.728;9.256;2023-08-20T12:22:51;6.07;;;5.63;;
12177;SDS011;6152;48.728;9.256;2023-08-20T12:25:17;6.70;;;6.20;;
12177;SDS011;6152;48.728;9.256;2023-08-20T12:27:44;6.35;;;5.85;;
12177;SDS011;6152;48.728;9.256;2023-08-20T12:30:10;6.45;;;5.88;;
12177;SDS011;6152;48.728;9.256;2023-08-20T12:32:37;6.18;;;5.53;;
12177;SDS011;6152;48.728;9.256;2023-08-20T12:35:03;6.15;;;5.55;;
12177;SDS011;6152;48.728;9.256;2023-08-20T12:37:30;6.65;;;5.95;;
12177;SDS011;6152;48.728;9.256;2023-08-20T12:39:56;6.10;;;5.50;;
12177;SDS011;6152;48.728;9.256;2023-08-20T12:42:22;6.45;;;5.95;;
12177;SDS011;6152;48.728;9.256;2023-08-20T12:44:48;6.45;;;5.53;;
12177;SDS011;6152;48.728;9.256;2023-08-20T12:47:14;7.65;;;5.65;;
12177;SDS011;6152;48.728;9.256;2023-08-20T12:49:41;5.68;;;5.18;;
12177;SDS011;6152;48.728;9.256;2023-08-20T12:52:07;6.63;;;6.13;;
12177;SDS011;6152;48.728;9.256;2023-08-20T12:54:33;6.07;;;5.57;;
12177;SDS011;6152;48.728;9.256;2023-08-20T12:56:59;6.53;;;5.80;;
12177;SDS011;6152;48.728;9.256;2023-08-20T12:59:25;6.35;;;5.75;;
12177;SDS011;6152;48.728;9.256;2023-08-20T13:01:51;6.28;;;5.75;;
12177;SDS011;6152;48.728;9.256;2023-08-20T13:04:17;6.18;;;5.68;;
12177;SDS011;6152;48.728;9.256;2023-08-20T13:06:44;6.28;;;5.40;;
12177;SDS011;6152;48.728;9.256;2023-08-20T13:09:11;6.05;;;5.25;;
12177;SDS011;6152;48.728;9.256;2023-08-20T13:11:40;5.85;;;5.25;;
12177;SDS011;6152;48.728;9.256;2023-08-20T13:14:09;6.57;;;5.63;;
12177;SDS011;6152;48.728;9.256;2023-08-20T13:16:36;7.40;;;5.60;;
12177;SDS011;6152;48.728;9.256;2023-08-20T13:19:02;6.68;;;5.50;;
12177;SDS011;6152;48.728;9.256;2023-08-20T13:21:28;6.80;;;5.95;;
12177;SDS011;6152;48.728;9.256;2023-08-20T13:23:54;7.07;;;5.82;;
12177;SDS011;6152;48.728;9.256;2023-08-20T13:26:21;6.43;;;5.93;;
12177;SDS011;6152;48.728;9.256;2023-08-20T13:28:47;6.57;;;5.38;;
12177;SDS011;6152;48.728;9.256;2023-08-20T13:31:13;8.35;;;5.65;;
12177;SDS011;6152;48.728;9.256;2023-08-20T13:33:39;5.57;;;5.18;;
12177;SDS011;6152;48.728;9.256;2023-08-20T13:36:06;7.60;;;5.70;;
12177;SDS011;6152;48.728;9.256;2023-08-20T13:38:32;6.07;;;5.50;;
12177;SDS011;6152;48.728;9.256;2023-08-20T13:40:59;6.28;;;4.97;;
12177;SDS011;6152;48.728;9.256;2023-08-20T13:43:26;6.60;;;5.00;;
12177;SDS011;6152;48.728;9.256;2023-08-20T13:45:52;6.55;;;5.70;;
12177;SDS011;6152;48.728;9.256;2023-08-20T13:48:18;6.43;;;5.47;;
12177;SDS011;6152;48.728;9.256;2023-08-20T13:50:44;6.55;;;5.28;;
12177;SDS011;6152;48.728;9.256;2023-08-20T13:53:10;8.07;;;5.78;;
12177;SDS011;6152;48.728;9.256;2023-08-20T13:55:36;6.10;;;5.45;;
12177;SDS011;6152;48.728;9.256;2023-08-20T13:58:02;5.38;;;4.97;;
12177;SDS011;6152;48.728;9.256;2023-08-20T14:00:29;6.88;;;5.50;;
12177;SDS011;6152;48.728;9.256;2023-08-20T14:02:55;9.40;;;5.65;;
12177;SDS011;6152;48.728;9.256;2023-08-20T14:05:22;6.10;;;5.10;;
12177;SDS011;6152;48.728;9.256;2023-08-20T14:07:49;5.90;;;5.30;;
12177;SDS011;6152;48.728;9.256;2023-08-20T14:10:15;5.65;;;5.13;;
12177;SDS011;6152;48.728;9.256;2023-08-20T14:12:41;5.93;;;5.35;;
12177;SDS011;6152;48.728;9.256;2023-08-20T14:15:08;6.13;;;5.53;;
12177;SDS011;6152;48.728;9.256;2023-08-20T14:17:35;6.78;;;5.20;;
12177;SDS011;6152;48.728;9.256;2023-08-20T14:20:01;6.00;;;5.07;;
12177;SDS011;6152;48.728;9.256;2023-08-20T14:22:28;7.70;;;5.65;;
12177;SDS011;6152;48.728;9.256;2023-08-20T14:24:54;6.03;;;5.38;;
12177;SDS011;6152;48.728;9.256;2023-08-20T14:27:20;6.95;;;5.22;;
12177;SDS011;6152;48.728;9.256;2023-08-20T14:29:47;6.05;;;5.50;;
12177;SDS011;6152;48.728;9.256;2023-08-20T14:32:13;6.53;;;5.93;;
12177;SDS011;6152;48.728;9.256;2023-08-20T14:34:39;6.10;;;5.50;;
12177;SDS011;6152;48.728;9.256;2023-08-20T14:37:05;5.80;;;5.00;;
12177;SDS011;6152;48.728;9.256;2023-08-20T14:39:32;5.35;;;4.93;;
12177;SDS011;6152;48.728;9.256;2023-08-20T14:41:58;5.43;;;4.93;;
12177;SDS011;6152;48.728;9.256;2023-08-20T14:44:24;6.22;;;5.63;;
12177;SDS011;6152;48.728;9.256;2023-08-20T14:46:52;6.43;;;5.55;;
12177;SDS011;6152;48.728;9.256;2023-08-20T14:49:18;5.45;;;5.05;;
12177;SDS011;6152;48.728;9.256;2023-08-20T14:51:44;7.68;;;5.38;;
12177;SDS011;6152;48.728;9.256;2023-08-20T14:54:10;5.80;;;5.30;;
12177;SDS011;6152;48.728;9.256;2023-08-20T14:56:36;5.80;;;5.15;;
12177;SDS011;6152;48.728;9.256;2023-08-20T14:59:02;8.23;;;5.53;;